createdAt,value
2023-03-18T00:02:07.197Z,3.20
2023-03-18T00:03:58.597Z,3.50
2023-03-18T00:06:00.193Z,3.20
2023-03-18T00:09:04.598Z,3.20
2023-03-18T00:11:58.936Z,3.40
2023-03-18T00:15:08.194Z,3.50
2023-03-18T00:16:37.908Z,3.60
2023-03-18T00:21:50.425Z,4.20
2023-03-18T00:23:19.108Z,3.30
2023-03-18T00:25:38.051Z,3.70
2023-03-18T00:28:02.889Z,3.80
2023-03-18T00:36:43.445Z,3.80
2023-03-18T00:40:05.242Z,3.80
2023-03-18T00:44:09.662Z,3.40
2023-03-18T00:45:43.131Z,3.60
2023-03-18T00:47:51.371Z,4.40
2023-03-18T00:55:17.023Z,4.20
2023-03-18T00:57:48.946Z,3.70
2023-03-18T00:59:59.052Z,3.90
2023-03-18T01:03:05.949Z,3.80
2023-03-18T01:06:14.162Z,4.60
2023-03-18T01:12:32.627Z,4.50
2023-03-18T01:21:29.785Z,5.00
2023-03-18T01:24:36.732Z,4.30
2023-03-18T01:26:08.580Z,4.50
2023-03-18T01:27:37.081Z,3.90
2023-03-18T01:30:33.475Z,4.60
2023-03-18T01:32:02.100Z,4.60
2023-03-18T01:35:21.225Z,5.40
2023-03-18T01:36:50.169Z,4.90
2023-03-18T01:39:11.752Z,4.40
2023-03-18T01:41:42.587Z,4.70
2023-03-18T01:48:19.000Z,5.00
2023-03-18T01:51:45.557Z,4.50
2023-03-18T01:54:20.091Z,4.30
2023-03-18T01:56:56.374Z,4.90
2023-03-18T02:00:15.283Z,4.40
2023-03-18T02:01:47.142Z,4.90
2023-03-18T02:03:14.341Z,5.00
2023-03-18T02:04:44.696Z,5.00
2023-03-18T02:07:15.630Z,4.30
2023-03-18T02:08:44.012Z,5.20
2023-03-18T02:10:34.593Z,4.50
2023-03-18T02:16:11.835Z,4.80
2023-03-18T02:22:23.918Z,4.30
2023-03-18T02:23:58.235Z,4.10
2023-03-18T02:26:58.766Z,4.60
2023-03-18T02:29:37.479Z,4.20
2023-03-18T02:30:14.513Z,4.60
2023-03-18T02:31:14.491Z,4.80
2023-03-18T02:34:59.650Z,4.30
2023-03-18T02:36:28.680Z,4.90
2023-03-18T02:39:38.224Z,4.60
2023-03-18T02:42:42.682Z,4.00
2023-03-18T02:46:37.988Z,4.20
2023-03-18T02:51:00.368Z,5.00
2023-03-18T02:53:41.727Z,5.10
2023-03-18T02:56:58.804Z,4.80
2023-03-18T03:02:43.750Z,3.90
2023-03-18T03:05:34.600Z,4.60
2023-03-18T03:08:23.943Z,5.50
2023-03-18T03:15:03.049Z,5.30
2023-03-18T03:17:50.998Z,5.50
2023-03-18T03:20:42.656Z,5.50
2023-03-18T03:28:58.790Z,5.50
2023-03-18T03:32:11.149Z,5.60
2023-03-18T03:38:45.422Z,5.70
2023-03-18T03:40:15.310Z,5.60
2023-03-18T03:43:23.853Z,6.30
2023-03-18T03:46:45.085Z,6.40
2023-03-18T03:50:14.901Z,6.40
2023-03-18T03:56:31.799Z,6.20
2023-03-18T03:58:30.122Z,6.30
2023-03-18T04:00:01.821Z,5.90
2023-03-18T04:03:55.977Z,6.50
2023-03-18T04:05:24.181Z,6.90
2023-03-18T04:07:58.002Z,6.70
2023-03-18T04:14:39.401Z,7.40
2023-03-18T04:16:37.751Z,6.90
2023-03-18T04:18:39.414Z,7.10
2023-03-18T04:21:10.509Z,7.20
2023-03-18T04:22:37.829Z,7.50
2023-03-18T04:29:03.420Z,8.10
2023-03-18T04:30:31.123Z,9.30
2023-03-18T04:37:24.704Z,9.00
2023-03-18T04:40:29.526Z,8.90
2023-03-18T04:45:37.532Z,8.40
2023-03-18T04:47:35.352Z,7.90
2023-03-18T04:49:10.605Z,8.00
2023-03-18T04:51:32.416Z,8.00
2023-03-18T04:53:02.134Z,8.00
2023-03-18T04:54:57.332Z,7.30
2023-03-18T04:59:55.339Z,7.60
2023-03-18T05:01:24.127Z,8.30
2023-03-18T05:03:26.005Z,8.00
2023-03-18T05:05:24.942Z,7.90
2023-03-18T05:10:27.387Z,9.00
2023-03-18T05:14:19.560Z,8.10
2023-03-18T05:16:37.784Z,7.30
2023-03-18T05:18:37.661Z,8.00
2023-03-18T05:21:34.813Z,8.70
2023-03-18T05:23:33.886Z,8.50
2023-03-18T05:27:51.715Z,8.50
2023-03-18T05:32:18.312Z,7.80
2023-03-18T05:34:45.864Z,9.10
2023-03-18T05:37:13.779Z,8.80
2023-03-18T05:40:17.983Z,9.20
2023-03-18T05:43:06.588Z,9.60
2023-03-18T05:45:05.595Z,9.00
2023-03-18T05:47:02.101Z,9.30
2023-03-18T05:50:12.331Z,9.90
2023-03-18T05:55:01.657Z,10.00
2023-03-18T05:57:03.421Z,10.60
2023-03-18T06:00:26.419Z,11.40
2023-03-18T06:04:32.602Z,11.30
2023-03-18T06:06:03.953Z,12.10
2023-03-18T06:08:36.700Z,12.70
2023-03-18T06:14:50.582Z,13.20
2023-03-18T06:16:18.918Z,13.80
2023-03-18T06:18:23.622Z,14.00
2023-03-18T06:20:53.190Z,15.10
2023-03-18T06:22:54.026Z,14.30
2023-03-18T06:25:47.892Z,14.50
2023-03-18T06:28:39.792Z,15.30
2023-03-18T06:31:32.901Z,15.60
2023-03-18T06:34:22.711Z,16.80
2023-03-18T06:35:53.529Z,15.60
2023-03-18T06:42:13.651Z,15.20
2023-03-18T06:43:43.583Z,16.00
2023-03-18T06:47:20.496Z,15.90
2023-03-18T06:50:10.512Z,16.70
2023-03-18T06:51:43.893Z,16.70
2023-03-18T06:53:14.958Z,16.80
2023-03-18T07:00:19.431Z,16.80
2023-03-18T07:01:49.177Z,16.00
2023-03-18T07:03:22.383Z,17.20
2023-03-18T07:06:55.899Z,17.70
2023-03-18T07:13:38.301Z,18.20
2023-03-18T07:16:04.947Z,18.60
2023-03-18T07:17:34.408Z,18.00
2023-03-18T07:20:07.668Z,18.10
2023-03-18T07:21:36.836Z,17.60
2023-03-18T07:28:22.137Z,19.00
2023-03-18T07:30:25.119Z,19.60
2023-03-18T07:35:38.527Z,19.40
2023-03-18T07:40:46.754Z,20.20
2023-03-18T07:42:14.525Z,19.60
2023-03-18T07:44:14.405Z,19.80
2023-03-18T07:51:47.357Z,18.30
2023-03-18T07:54:14.761Z,19.00
2023-03-18T07:55:42.872Z,18.70
2023-03-18T07:58:00.752Z,19.00
2023-03-18T07:59:57.754Z,18.70
2023-03-18T08:06:22.842Z,18.70
2023-03-18T08:08:21.687Z,19.10
2023-03-18T08:12:51.553Z,19.90
2023-03-18T08:14:08.411Z,20.10
2023-03-18T08:18:45.109Z,18.10
2023-03-18T08:20:42.356Z,17.50
2023-03-18T08:24:26.225Z,16.80
2023-03-18T08:27:24.954Z,16.10
2023-03-18T08:34:26.732Z,15.00
2023-03-18T08:37:48.221Z,15.00
2023-03-18T08:39:23.093Z,14.20
2023-03-18T08:42:46.898Z,15.10
2023-03-18T08:44:48.005Z,14.10
2023-03-18T08:48:42.520Z,13.90
2023-03-18T08:56:10.798Z,13.30
2023-03-18T08:57:46.712Z,13.40
2023-03-18T08:59:49.519Z,13.40
2023-03-18T09:10:19.194Z,13.90
2023-03-18T09:12:21.472Z,13.40
2023-03-18T09:14:48.174Z,13.60
2023-03-18T09:17:16.442Z,13.00
2023-03-18T09:19:38.040Z,13.40
2023-03-18T09:22:17.330Z,13.50
2023-03-18T09:24:18.174Z,13.00
2023-03-18T09:27:16.930Z,14.10
2023-03-18T09:32:33.718Z,13.50
2023-03-18T09:34:03.731Z,12.80
2023-03-18T09:35:33.311Z,13.00
2023-03-18T09:37:02.724Z,12.50
2023-03-18T09:39:32.275Z,11.10
2023-03-18T09:41:01.390Z,12.20
2023-03-18T09:43:50.420Z,11.90
2023-03-18T09:46:43.404Z,10.70
2023-03-18T09:48:12.391Z,11.20
2023-03-18T09:55:01.793Z,10.00
2023-03-18T09:56:29.810Z,9.60
2023-03-18T09:59:01.867Z,10.10
2023-03-18T10:03:13.126Z,9.40
2023-03-18T10:06:10.468Z,9.20
2023-03-18T10:09:51.272Z,9.60
2023-03-18T10:13:19.951Z,9.60
2023-03-18T10:15:38.241Z,9.50
2023-03-18T10:17:07.078Z,9.50
2023-03-18T10:18:38.025Z,9.80
2023-03-18T10:21:39.113Z,10.00
2023-03-18T10:25:29.152Z,9.20
2023-03-18T10:27:55.073Z,9.70
2023-03-18T10:30:29.447Z,10.10
2023-03-18T10:31:58.543Z,9.60
2023-03-18T10:38:12.892Z,9.50
2023-03-18T10:39:41.480Z,9.60
2023-03-18T10:41:10.447Z,9.50
2023-03-18T10:46:28.152Z,10.10
2023-03-18T10:52:25.376Z,8.80
2023-03-18T10:54:26.222Z,8.50
2023-03-18T10:59:24.737Z,7.80
2023-03-18T11:01:52.441Z,7.50
2023-03-18T11:11:04.789Z,6.00
2023-03-18T11:15:22.258Z,5.70
2023-03-18T11:17:42.800Z,5.20
2023-03-18T11:23:58.108Z,4.40
2023-03-18T11:26:18.550Z,3.70
2023-03-18T11:30:04.124Z,3.20
2023-03-18T11:33:06.575Z,3.30
2023-03-18T11:34:33.617Z,2.90
2023-03-18T11:36:55.210Z,3.10
2023-03-18T11:39:42.366Z,3.00
2023-03-18T11:42:15.878Z,2.80
2023-03-18T11:43:42.882Z,2.50
2023-03-18T11:48:02.491Z,5.10
2023-03-18T11:49:33.435Z,3.80
2023-03-18T11:51:22.220Z,3.40
2023-03-18T11:53:11.022Z,3.10
2023-03-18T11:54:10.964Z,3.30
2023-03-18T11:55:13.763Z,3.40
2023-03-18T11:56:10.947Z,3.50
2023-03-18T11:58:02.967Z,3.00
2023-03-18T12:00:30.412Z,2.70
2023-03-18T12:03:25.149Z,2.60
2023-03-18T12:06:12.732Z,1.90
2023-03-18T12:07:44.841Z,2.30
2023-03-18T12:15:46.395Z,1.70
2023-03-18T12:17:13.523Z,2.00
2023-03-18T12:21:06.925Z,1.80
2023-03-18T12:24:44.591Z,2.20
2023-03-18T12:28:20.968Z,2.10
2023-03-18T12:30:39.775Z,1.70
2023-03-18T12:32:33.239Z,1.60
2023-03-18T12:36:56.669Z,1.80
2023-03-18T12:39:31.122Z,1.70
2023-03-18T12:42:16.545Z,1.60
2023-03-18T12:44:06.708Z,1.60
2023-03-18T12:45:37.130Z,1.30
2023-03-18T12:47:53.934Z,1.50
2023-03-18T12:50:12.707Z,1.20
2023-03-18T13:03:37.924Z,1.50
2023-03-18T13:05:05.002Z,1.50
2023-03-18T13:07:07.060Z,1.70
2023-03-18T13:09:37.923Z,1.80
2023-03-18T13:11:40.646Z,1.80
2023-03-18T13:13:38.676Z,2.00
2023-03-18T13:18:24.128Z,1.30
2023-03-18T13:20:48.881Z,1.60
2023-03-18T13:22:19.966Z,1.90
2023-03-18T13:23:46.984Z,1.90
2023-03-18T13:26:44.030Z,1.60
2023-03-18T13:30:55.080Z,1.70
2023-03-18T13:32:26.964Z,1.40
2023-03-18T13:33:55.960Z,1.50
2023-03-18T13:35:23.882Z,1.90
2023-03-18T13:37:12.579Z,1.80
2023-03-18T13:40:42.869Z,1.60
2023-03-18T13:42:31.632Z,2.20
2023-03-18T13:48:36.391Z,1.90
2023-03-18T13:50:15.901Z,1.40
2023-03-18T13:53:23.220Z,1.40
2023-03-18T13:56:42.935Z,1.40
2023-03-18T13:59:38.709Z,1.30
2023-03-18T14:01:58.367Z,1.30
2023-03-18T14:03:56.871Z,1.20
2023-03-18T14:05:46.543Z,1.30
2023-03-18T14:08:17.254Z,1.40
2023-03-18T14:11:39.305Z,1.50
2023-03-18T14:13:06.819Z,1.60
2023-03-18T14:15:34.160Z,1.70
2023-03-18T14:20:16.739Z,1.40
2023-03-18T14:21:45.000Z,1.60
2023-03-18T14:23:33.993Z,1.30
2023-03-18T14:27:11.566Z,1.90
2023-03-18T14:29:00.728Z,1.70
2023-03-18T14:30:49.369Z,1.70
2023-03-18T14:34:22.054Z,1.30
2023-03-18T14:36:41.846Z,1.50
2023-03-18T14:38:59.654Z,2.00
2023-03-18T14:40:50.609Z,1.60
2023-03-18T14:42:30.301Z,1.70
2023-03-18T14:44:01.196Z,1.50
2023-03-18T14:46:03.817Z,2.40
2023-03-18T14:48:01.962Z,2.00
2023-03-18T14:49:30.827Z,2.50
2023-03-18T14:53:31.560Z,2.00
2023-03-18T14:56:50.872Z,3.20
2023-03-18T14:58:51.227Z,4.50
2023-03-18T15:01:19.906Z,2.90
2023-03-18T15:05:16.530Z,1.80
2023-03-18T15:08:04.426Z,1.80
2023-03-18T15:13:28.692Z,1.90
2023-03-18T15:18:56.044Z,2.20
2023-03-18T15:21:25.978Z,1.60
2023-03-18T15:23:25.231Z,3.10
2023-03-18T15:24:59.694Z,1.90
2023-03-18T15:27:58.265Z,1.50
2023-03-18T15:29:55.181Z,1.70
2023-03-18T15:31:25.837Z,2.00
2023-03-18T15:33:23.210Z,2.10
2023-03-18T15:38:12.875Z,2.10
2023-03-18T15:40:47.097Z,2.20
2023-03-18T15:46:30.256Z,2.30
2023-03-18T15:50:38.788Z,2.70
2023-03-18T15:52:34.428Z,2.40
2023-03-18T15:55:33.477Z,2.30
2023-03-18T15:57:06.344Z,2.40
2023-03-18T15:58:39.176Z,2.70
2023-03-18T16:01:57.777Z,3.10
2023-03-18T16:03:27.843Z,2.70
2023-03-18T16:09:36.045Z,2.30
2023-03-18T16:13:43.609Z,2.50
2023-03-18T16:17:31.569Z,2.50
2023-03-18T16:20:28.649Z,2.40
2023-03-18T16:23:28.892Z,2.30
2023-03-18T16:26:45.113Z,2.50
2023-03-18T16:31:53.484Z,1.60
2023-03-18T16:38:49.916Z,2.10
2023-03-18T16:40:53.851Z,2.00
2023-03-18T16:43:17.161Z,1.70
2023-03-18T16:44:47.021Z,1.80
2023-03-18T16:49:13.456Z,1.70
2023-03-18T16:53:09.377Z,2.30
2023-03-18T16:56:17.750Z,2.50
2023-03-18T16:57:48.583Z,2.80
2023-03-18T17:00:06.344Z,3.40
2023-03-18T17:02:39.921Z,2.80
2023-03-18T17:04:42.171Z,3.10
2023-03-18T17:09:56.199Z,3.40
2023-03-18T17:12:57.897Z,3.40
2023-03-18T17:16:41.848Z,3.10
2023-03-18T17:18:42.095Z,3.40
2023-03-18T17:26:49.618Z,4.00
2023-03-18T17:29:19.967Z,3.70
2023-03-18T17:33:35.910Z,4.60
2023-03-18T17:35:56.820Z,4.60
2023-03-18T17:39:54.607Z,5.60
2023-03-18T17:42:55.273Z,5.40
2023-03-18T17:48:49.958Z,5.90
2023-03-18T17:51:34.958Z,5.50
2023-03-18T17:54:46.297Z,5.30
2023-03-18T17:56:16.235Z,6.40
2023-03-18T17:57:46.098Z,6.20
2023-03-18T17:59:47.136Z,7.00
2023-03-18T18:01:44.183Z,7.60
2023-03-18T18:05:04.118Z,8.10
2023-03-18T18:07:25.437Z,8.00
2023-03-18T18:08:53.351Z,8.90
2023-03-18T18:10:53.701Z,8.70
2023-03-18T18:17:19.811Z,9.70
2023-03-18T18:18:49.817Z,9.80
2023-03-18T18:23:41.377Z,11.30
2023-03-18T18:27:00.378Z,13.10
2023-03-18T18:38:04.362Z,11.50
2023-03-18T18:41:58.880Z,11.40
2023-03-18T18:43:48.893Z,12.10
2023-03-18T18:47:09.482Z,12.10
2023-03-18T18:48:56.297Z,12.40
2023-03-18T18:51:27.859Z,12.30
2023-03-18T18:53:29.514Z,11.00
2023-03-18T18:55:18.252Z,11.70
2023-03-18T18:58:36.827Z,11.10
2023-03-18T19:01:49.997Z,11.30
2023-03-18T19:07:10.651Z,12.30
2023-03-18T19:08:10.871Z,12.30
2023-03-18T19:08:49.603Z,12.70
2023-03-18T19:09:49.582Z,12.40
2023-03-18T19:14:04.865Z,11.80
2023-03-18T19:14:43.874Z,11.90
2023-03-18T19:15:43.815Z,12.10
2023-03-18T19:17:12.908Z,12.50
2023-03-18T19:19:12.971Z,12.70
2023-03-18T19:29:16.867Z,12.50
2023-03-18T19:30:51.883Z,12.50
2023-03-18T19:33:50.867Z,11.90
2023-03-18T19:36:10.410Z,13.00
2023-03-18T19:42:02.044Z,12.60
2023-03-18T19:43:30.997Z,12.50
2023-03-18T19:45:19.768Z,13.90
2023-03-18T19:49:40.717Z,14.00
2023-03-18T19:52:30.312Z,12.40
2023-03-18T19:54:03.029Z,13.50
2023-03-18T19:58:31.057Z,13.20
2023-03-18T20:00:01.830Z,14.10
2023-03-18T20:02:21.742Z,13.80
2023-03-18T20:04:40.575Z,14.40
2023-03-18T20:10:41.974Z,15.40
2023-03-18T20:14:01.221Z,15.20
2023-03-18T20:16:02.132Z,15.20
2023-03-18T20:23:29.883Z,16.30
2023-03-18T20:26:18.664Z,16.10
2023-03-18T20:27:48.668Z,16.00
2023-03-18T20:37:15.580Z,16.30
2023-03-18T20:39:51.326Z,16.20
2023-03-18T20:41:40.168Z,16.20
2023-03-18T20:43:34.479Z,16.20
2023-03-18T20:49:48.701Z,15.70
2023-03-18T20:51:40.748Z,15.90
2023-03-18T20:59:07.975Z,15.30
2023-03-18T21:00:59.651Z,15.90
2023-03-18T21:03:17.673Z,15.80
2023-03-18T21:05:06.360Z,14.80
2023-03-18T21:11:59.389Z,15.50
2023-03-18T21:16:29.409Z,16.40
2023-03-18T21:20:37.357Z,16.10
2023-03-18T21:23:36.596Z,17.30
2023-03-18T21:27:03.813Z,16.10
2023-03-18T21:30:12.854Z,15.30
2023-03-18T21:31:44.018Z,15.10
2023-03-18T21:33:15.534Z,14.50
2023-03-18T21:37:23.139Z,15.20
2023-03-18T21:38:55.192Z,15.40
2023-03-18T21:40:30.736Z,15.80
2023-03-18T21:42:18.596Z,13.80
2023-03-18T21:43:53.792Z,15.00
2023-03-18T21:45:22.864Z,14.70
2023-03-18T21:47:27.916Z,15.00
2023-03-18T21:53:59.362Z,14.60
2023-03-18T21:56:49.350Z,14.60
2023-03-18T21:58:18.330Z,14.80
2023-03-18T21:59:49.153Z,14.90
2023-03-18T22:01:40.016Z,14.10
2023-03-18T22:06:44.256Z,14.50
2023-03-18T22:08:43.208Z,13.20
2023-03-18T22:10:44.111Z,13.80
2023-03-18T22:12:13.039Z,13.40
2023-03-18T22:19:10.898Z,13.10
2023-03-18T22:20:59.677Z,12.10
2023-03-18T22:22:30.180Z,13.40
2023-03-18T22:27:12.553Z,14.20
2023-03-18T22:28:41.820Z,17.00
2023-03-18T22:30:29.568Z,15.50
2023-03-18T22:37:22.228Z,14.80
2023-03-18T22:42:17.814Z,16.00
2023-03-18T22:43:45.084Z,15.50
2023-03-18T22:50:07.387Z,18.10
2023-03-18T22:56:20.097Z,15.70
2023-03-18T22:58:39.152Z,17.50
2023-03-18T23:07:08.072Z,16.80
2023-03-18T23:09:39.319Z,18.00
2023-03-18T23:12:57.198Z,17.50
2023-03-18T23:16:23.343Z,18.10
2023-03-18T23:17:54.297Z,18.20
2023-03-18T23:19:24.958Z,17.70
2023-03-18T23:23:33.109Z,18.60
2023-03-18T23:25:21.421Z,17.80
2023-03-18T23:27:21.832Z,20.00
2023-03-18T23:28:49.124Z,18.80
2023-03-18T23:30:20.014Z,19.40
2023-03-18T23:31:51.063Z,18.90
2023-03-18T23:34:36.650Z,18.90
2023-03-18T23:38:28.484Z,18.70
2023-03-18T23:40:57.967Z,17.60
2023-03-18T23:44:56.281Z,17.60
2023-03-18T23:46:25.770Z,18.40
2023-03-18T23:50:42.770Z,20.20
2023-03-18T23:52:32.426Z,18.30
2023-03-18T23:54:02.354Z,18.40
2023-03-18T23:58:18.740Z,18.20
2023-03-18T23:59:52.653Z,18.20
